McComb, Mississippi
Current Conditions -  °F | °C
As of 1:53 PM on Sunday 25 Jan 2015 (Local Time) from KMCB Reporting Station
Clear Clear  
Wind Chill: 67°   Ceiling: Unl
Heat Index: 67°   Visibility: 10mi
Dew Point: 38°   Wind: 20mph
Humidity: 34%   Direction: 220°SW
Pressure: 29.84"   Gusts: 26mph
Location:  31.25°N, 90.45°W
Report Text: KMCB 251953Z AUTO 22017G23KT 10SM CLR 19/03 A2984 RMK AO2 PK WND 22029/1940 SLP102 T01940033 $
Loading
Personal Weather Stations






























Interactive Weather Map New forecast layout! Learn more

10-Day Weather Forecast

Advertisements
Track Severe Weather on mobile